Time;durP1;ratioP1;P1;durP2;ratioP2;P2;SDS_P1;SDS_P2;PMS_P1;PMS_P2;Temp;Humidity;BMP_temperature;BMP_pressure;BME280_temperature;BME280_humidity;BME280_pressure;Samples;Min_cycle;Max_cycle;Signal;HPM_P1;HPM_P2
2023/11/01 00:00:54;;;;;;;15.93;12.30;;;;;22.50;99423.00;;;;2044939;28;20250;-59
2023/11/01 00:01:55;;;;;;;15.43;11.70;;;;;22.50;99419.00;;;;2071977;28;20317;-58
2023/11/01 00:02:55;;;;;;;14.77;11.40;;;;;22.50;99423.00;;;;2069046;28;20328;-58
2023/11/01 00:03:55;;;;;;;15.47;12.53;;;;;22.50;99423.00;;;;2059981;28;20229;-57
2023/11/01 00:04:56;;;;;;;14.90;10.87;;;;;22.50;99420.00;;;;2061940;28;20992;-57
2023/11/01 00:05:57;;;;;;;14.43;11.17;;;;;22.40;99425.00;;;;2050371;28;20289;-57
2023/11/01 00:06:58;;;;;;;16.00;11.73;;;;;22.40;99416.00;;;;2064831;28;20219;-56
2023/11/01 00:07:58;;;;;;;15.07;10.67;;;;;22.40;99423.00;;;;2061483;28;20223;-57
2023/11/01 00:08:58;;;;;;;12.20;10.80;;;;;22.40;99425.00;;;;2063044;28;20454;-57
2023/11/01 00:09:59;;;;;;;13.00;10.80;;;;;22.40;99421.00;;;;2061930;28;20365;-58
2023/11/01 00:10:59;;;;;;;13.73;10.60;;;;;22.40;99427.00;;;;2054747;28;20285;-56
2023/11/01 00:12:00;;;;;;;13.40;10.80;;;;;22.40;99425.00;;;;2068154;28;20253;-56
2023/11/01 00:13:00;;;;;;;14.80;10.27;;;;;22.40;99422.00;;;;2064784;28;20785;-57
2023/11/01 00:14:02;;;;;;;13.83;9.90;;;;;22.50;99422.00;;;;2061410;28;20229;-56
2023/11/01 00:15:03;;;;;;;12.98;10.60;;;;;22.40;99419.00;;;;2061162;28;20218;-56
2023/11/01 00:16:03;;;;;;;14.60;10.60;;;;;22.10;99427.00;;;;2052062;28;20691;-57
2023/11/01 00:17:04;;;;;;;11.37;9.30;;;;;22.40;99421.00;;;;2061901;28;20215;-57
2023/11/01 00:18:04;;;;;;;11.10;9.00;;;;;22.40;99421.00;;;;2061035;28;20219;-57
2023/11/01 00:19:05;;;;;;;11.83;10.43;;;;;22.50;99423.00;;;;2069265;28;20669;-57
2023/11/01 00:20:06;;;;;;;16.20;10.43;;;;;22.50;99420.00;;;;2064327;28;20284;-57
2023/11/01 00:21:07;;;;;;;11.93;9.35;;;;;22.40;99416.00;;;;2051816;28;20219;-57
2023/11/01 00:22:08;;;;;;;13.82;9.40;;;;;22.40;99424.00;;;;2068514;28;20354;-57
2023/11/01 00:23:08;;;;;;;12.13;9.50;;;;;22.40;99421.00;;;;2062667;28;20222;-57
2023/11/01 00:24:08;;;;;;;11.60;9.23;;;;;22.50;99417.00;;;;2061028;28;20246;-56
2023/11/01 00:25:09;;;;;;;12.20;9.73;;;;;22.40;99426.00;;;;2061184;28;20210;-56
2023/11/01 00:26:09;;;;;;;13.20;9.20;;;;;22.40;99432.00;;;;2053945;28;20285;-56
2023/11/01 00:27:09;;;;;;;11.97;9.47;;;;;22.40;99424.00;;;;2061335;28;20211;-56
2023/11/01 00:28:10;;;;;;;11.57;9.00;;;;;22.40;99421.00;;;;2064437;28;20230;-56
2023/11/01 00:29:10;;;;;;;12.43;9.57;;;;;22.40;99419.00;;;;2061885;28;20227;-57
2023/11/01 00:30:11;;;;;;;9.63;8.10;;;;;22.40;99419.00;;;;2065033;28;20222;-59
2023/11/01 00:31:11;;;;;;;10.30;8.20;;;;;22.50;99419.00;;;;2054140;28;20214;-58
2023/11/01 00:32:11;;;;;;;11.37;9.17;;;;;22.40;99425.00;;;;2059814;28;20211;-58
2023/11/01 00:33:12;;;;;;;11.53;8.50;;;;;22.40;99417.00;;;;2053268;28;20215;-59
2023/11/01 00:34:13;;;;;;;11.48;8.27;;;;;22.40;99424.00;;;;2061411;28;20493;-59
2023/11/01 00:35:13;;;;;;;10.97;8.13;;;;;22.40;99425.00;;;;2068507;28;20309;-57
2023/11/01 00:36:13;;;;;;;11.70;8.20;;;;;22.40;99414.00;;;;2051258;28;20222;-58
2023/11/01 00:37:14;;;;;;;10.13;7.80;;;;;22.40;99416.00;;;;2065620;28;20268;-59
2023/11/01 00:38:23;;;;;;;10.67;8.00;;;;;22.40;99419.00;;;;2057947;28;20215;-57
2023/11/01 00:39:24;;;;;;;10.23;8.10;;;;;22.40;99407.00;;;;2064172;28;20703;-58
2023/11/01 00:40:24;;;;;;;9.93;7.77;;;;;22.40;99418.00;;;;2069202;28;20222;-58
2023/11/01 00:41:24;;;;;;;9.80;7.33;;;;;22.40;99416.00;;;;2057754;28;20313;-59
2023/11/01 00:42:25;;;;;;;10.00;7.50;;;;;22.40;99412.00;;;;2061753;28;20219;-59
2023/11/01 00:43:25;;;;;;;9.73;7.77;;;;;22.40;99415.00;;;;2060651;28;20223;-58
2023/11/01 00:44:25;;;;;;;12.30;7.70;;;;;22.40;99408.00;;;;2066649;28;20244;-57
2023/11/01 00:45:26;;;;;;;9.37;7.63;;;;;22.40;99415.00;;;;2061539;28;20210;-58
2023/11/01 00:46:27;;;;;;;9.37;8.00;;;;;22.40;99407.00;;;;2052603;28;20437;-58
2023/11/01 00:47:27;;;;;;;8.73;6.70;;;;;22.40;99413.00;;;;2054563;28;20219;-56
2023/11/01 00:48:27;;;;;;;9.53;7.60;;;;;22.40;99410.00;;;;2060925;28;20490;-56
2023/11/01 00:49:28;;;;;;;9.70;7.67;;;;;22.40;99409.00;;;;2061387;28;20250;-57
2023/11/01 00:50:28;;;;;;;8.40;7.00;;;;;22.40;99410.00;;;;2061790;28;20227;-57
2023/11/01 00:51:28;;;;;;;11.37;7.47;;;;;22.40;99414.00;;;;2053506;28;20222;-59
2023/11/01 00:52:29;;;;;;;8.80;7.07;;;;;22.40;99407.00;;;;2061526;28;20215;-58
2023/11/01 00:53:29;;;;;;;9.63;7.67;;;;;22.40;99405.00;;;;2060916;28;20262;-58
2023/11/01 00:54:29;;;;;;;9.63;6.73;;;;;22.40;99407.00;;;;2061190;28;20238;-58
2023/11/01 00:55:30;;;;;;;8.67;7.23;;;;;22.30;99407.00;;;;2068681;28;20279;-56
2023/11/01 00:56:31;;;;;;;8.50;6.95;;;;;22.30;99400.00;;;;2057215;28;20234;-56
2023/11/01 00:57:32;;;;;;;10.70;6.60;;;;;22.30;99417.00;;;;2061457;28;20215;-57
2023/11/01 00:58:32;;;;;;;9.38;7.10;;;;;22.30;99298.00;;;;2061747;28;20252;-58
2023/11/01 00:59:33;;;;;;;9.90;6.80;;;;;22.30;99394.00;;;;2053515;28;20207;-58
2023/11/01 01:00:33;;;;;;;9.80;7.10;;;;;21.90;99397.00;;;;2060863;28;20223;-57
2023/11/01 01:01:33;;;;;;;9.40;6.37;;;;;22.30;99390.00;;;;2056802;28;20222;-58
2023/11/01 01:02:34;;;;;;;9.13;5.93;;;;;22.40;99399.00;;;;2060865;28;20277;-58
2023/11/01 01:03:34;;;;;;;8.13;6.30;;;;;22.30;99390.00;;;;2056339;28;20222;-56
2023/11/01 01:04:34;;;;;;;7.80;6.53;;;;;22.40;99394.00;;;;2053485;28;20868;-57
2023/11/01 01:05:35;;;;;;;9.40;6.73;;;;;22.40;99396.00;;;;2055261;28;20226;-58
2023/11/01 01:06:35;;;;;;;7.53;5.77;;;;;22.40;99386.00;;;;2057628;28;20225;-57
2023/11/01 01:07:35;;;;;;;8.03;5.80;;;;;22.30;99389.00;;;;2061051;28;20298;-56
2023/11/01 01:08:36;;;;;;;8.77;5.93;;;;;22.30;99390.00;;;;2063857;28;20263;-58
2023/11/01 01:09:36;;;;;;;6.53;5.43;;;;;22.30;99386.00;;;;2061096;28;20228;-57
2023/11/01 01:10:36;;;;;;;8.77;6.20;;;;;22.30;99394.00;;;;2059679;28;20585;-62
2023/11/01 01:11:37;;;;;;;8.00;5.77;;;;;22.40;99394.00;;;;2049806;28;20690;-57
2023/11/01 01:12:37;;;;;;;6.73;5.60;;;;;22.40;99399.00;;;;2068586;28;20787;-58
2023/11/01 01:13:37;;;;;;;12.20;6.00;;;;;22.40;99392.00;;;;2060946;28;20219;-57
2023/11/01 01:14:38;;;;;;;9.43;6.30;;;;;22.40;99391.00;;;;2060815;28;20387;-57
2023/11/01 01:15:38;;;;;;;9.30;6.03;;;;;22.40;99378.00;;;;2049954;28;20297;-59
2023/11/01 01:16:39;;;;;;;6.73;5.40;;;;;22.40;99386.00;;;;2055086;28;22032;-59
2023/11/01 01:17:39;;;;;;;8.43;5.00;;;;;22.40;99378.00;;;;2061614;28;20218;-56
2023/11/01 01:18:42;;;;;;;8.30;5.70;;;;;22.40;99378.00;;;;2061498;28;20226;-57
2023/11/01 01:19:42;;;;;;;7.53;5.68;;;;;22.40;99387.00;;;;2062310;28;20217;-57
2023/11/01 01:20:42;;;;;;;7.70;5.17;;;;;22.30;99383.00;;;;2058617;28;20237;-56
2023/11/01 01:21:43;;;;;;;8.80;5.00;;;;;22.30;99378.00;;;;2059353;28;20207;-55
2023/11/01 01:22:43;;;;;;;9.50;5.27;;;;;22.30;99385.00;;;;2065254;28;20213;-57
2023/11/01 01:23:44;;;;;;;8.43;5.63;;;;;22.30;99377.00;;;;2061469;28;20695;-58
2023/11/01 01:24:44;;;;;;;7.00;5.07;;;;;22.30;99381.00;;;;2061462;28;20222;-58
2023/11/01 01:25:45;;;;;;;7.60;4.77;;;;;22.30;99383.00;;;;2049630;28;20211;-57
2023/11/01 01:26:46;;;;;;;7.10;5.13;;;;;22.30;99378.00;;;;2055802;28;20216;-57
2023/11/01 01:27:46;;;;;;;6.78;5.50;;;;;22.30;99375.00;;;;2068976;28;20272;-56
2023/11/01 01:28:46;;;;;;;6.53;4.60;;;;;22.30;99376.00;;;;2067120;28;20301;-57
2023/11/01 01:29:47;;;;;;;5.70;4.67;;;;;22.30;99378.00;;;;2070929;28;20930;-58
2023/11/01 01:30:47;;;;;;;5.67;4.50;;;;;22.30;99376.00;;;;2045631;28;20632;-58
2023/11/01 01:31:47;;;;;;;7.00;5.13;;;;;22.30;99367.00;;;;2059615;28;20226;-57
2023/11/01 01:32:48;;;;;;;5.87;4.07;;;;;22.30;99370.00;;;;2054922;28;20219;-58
2023/11/01 01:33:48;;;;;;;7.30;5.20;;;;;22.30;99360.00;;;;2061114;28;20334;-58
2023/11/01 01:34:48;;;;;;;7.70;4.50;;;;;22.30;99364.00;;;;2061185;28;20215;-57
2023/11/01 01:35:49;;;;;;;7.07;4.73;;;;;22.30;99361.00;;;;2050943;28;20247;-58
2023/11/01 01:36:49;;;;;;;9.23;4.70;;;;;22.30;99363.00;;;;2059654;28;20222;-57
2023/11/01 01:37:49;;;;;;;7.47;4.60;;;;;22.30;99364.00;;;;2055026;28;20298;-58
2023/11/01 01:38:50;;;;;;;6.87;4.90;;;;;22.30;99361.00;;;;2061034;28;20276;-58
2023/11/01 01:39:50;;;;;;;8.40;4.57;;;;;22.20;99358.00;;;;2061300;28;20298;-58
2023/11/01 01:40:51;;;;;;;6.07;4.30;;;;;22.30;99363.00;;;;2051047;28;20215;-58
2023/11/01 01:41:51;;;;;;;5.63;4.03;;;;;22.20;99349.00;;;;2064507;28;20453;-57
2023/11/01 01:42:51;;;;;;;6.20;4.70;;;;;22.20;99356.00;;;;2068603;28;20296;-58
2023/11/01 01:43:52;;;;;;;5.87;4.70;;;;;22.20;99357.00;;;;2068973;28;20274;-58
2023/11/01 01:44:53;;;;;;;5.00;4.27;;;;;22.20;99357.00;;;;2061241;28;20222;-57
2023/11/01 01:46:10;;;;;;;5.77;4.43;;;;;22.20;99350.00;;;;2051227;28;20274;-57
2023/11/01 01:47:10;;;;;;;6.30;4.18;;;;;22.20;99343.00;;;;2060480;28;20469;-58
2023/11/01 01:48:11;;;;;;;4.93;3.63;;;;;22.20;99325.00;;;;2045345;28;20219;-57
2023/11/01 01:49:11;;;;;;;5.23;3.50;;;;;22.20;99342.00;;;;2055988;28;20235;-56
2023/11/01 01:50:12;;;;;;;6.23;4.10;;;;;22.20;99343.00;;;;2047676;28;20943;-58
2023/11/01 01:51:12;;;;;;;6.53;3.93;;;;;22.20;99342.00;;;;2038923;28;20385;-58
2023/11/01 01:52:12;;;;;;;5.07;3.30;;;;;22.20;99267.00;;;;2057200;28;20211;-57
2023/11/01 01:53:13;;;;;;;5.90;3.80;;;;;22.20;99340.00;;;;2062098;28;20696;-58
2023/11/01 01:54:14;;;;;;;6.67;4.20;;;;;22.20;99343.00;;;;2063456;28;20265;-58
2023/11/01 01:55:14;;;;;;;5.63;4.07;;;;;22.20;99339.00;;;;2061224;28;20647;-57
2023/11/01 01:56:15;;;;;;;5.73;3.57;;;;;22.20;99337.00;;;;2052961;28;20230;-57
2023/11/01 01:57:17;;;;;;;6.40;3.90;;;;;22.20;99314.00;;;;2060635;28;20211;-58
2023/11/01 01:58:18;;;;;;;8.40;3.53;;;;;22.20;99329.00;;;;2051719;28;20233;-57
2023/11/01 01:59:18;;;;;;;5.17;3.30;;;;;22.20;99329.00;;;;2052350;28;20215;-57
2023/11/01 02:00:18;;;;;;;6.17;4.40;;;;;22.20;99327.00;;;;2054449;28;20647;-58
2023/11/01 02:01:19;;;;;;;6.30;3.80;;;;;22.20;99329.00;;;;2056007;28;20237;-57
2023/11/01 02:02:20;;;;;;;5.80;4.00;;;;;22.20;99331.00;;;;2068211;28;20217;-58
2023/11/01 02:03:21;;;;;;;5.25;3.38;;;;;22.20;99328.00;;;;2060374;28;20462;-57
2023/11/01 02:04:21;;;;;;;5.83;3.50;;;;;22.20;99321.00;;;;2060239;28;20211;-58
2023/11/01 02:05:21;;;;;;;7.93;3.73;;;;;22.20;99325.00;;;;2067043;28;20211;-55
2023/11/01 02:06:22;;;;;;;4.57;3.37;;;;;22.20;99324.00;;;;2060169;28;20218;-57
2023/11/01 02:07:22;;;;;;;6.03;3.70;;;;;22.20;99317.00;;;;2067793;28;20237;-57
2023/11/01 02:08:23;;;;;;;5.93;3.70;;;;;22.10;99321.00;;;;2061013;28;20320;-57
2023/11/01 02:09:23;;;;;;;4.37;3.37;;;;;22.20;99324.00;;;;2066847;28;20585;-57
2023/11/01 02:10:24;;;;;;;3.57;3.03;;;;;22.20;99312.00;;;;2068643;28;20457;-55
2023/11/01 02:11:24;;;;;;;3.87;3.17;;;;;22.20;99315.00;;;;2058449;28;20214;-57
2023/11/01 02:12:24;;;;;;;5.80;3.37;;;;;22.20;99322.00;;;;2059461;28;20771;-57
2023/11/01 02:13:25;;;;;;;7.60;3.70;;;;;22.20;99313.00;;;;2060415;28;20219;-56
2023/11/01 02:14:26;;;;;;;3.73;3.10;;;;;22.10;99311.00;;;;2059367;28;20218;-58
2023/11/01 02:15:27;;;;;;;4.38;3.33;;;;;22.20;99312.00;;;;2060563;28;20214;-58
2023/11/01 02:16:27;;;;;;;5.17;2.80;;;;;22.20;99314.00;;;;2055700;28;20214;-55
2023/11/01 02:17:27;;;;;;;4.20;3.00;;;;;22.20;99312.00;;;;2062003;28;20285;-58
2023/11/01 02:18:28;;;;;;;4.40;2.80;;;;;22.20;99308.00;;;;2054605;28;20207;-56
2023/11/01 02:19:29;;;;;;;4.13;3.10;;;;;22.20;99300.00;;;;2060760;28;20214;-58
2023/11/01 02:20:30;;;;;;;3.67;2.90;;;;;22.20;99306.00;;;;2054318;28;21446;-57
2023/11/01 02:21:30;;;;;;;5.03;2.97;;;;;22.10;99161.00;;;;2052067;28;20217;-56
2023/11/01 02:22:30;;;;;;;3.70;2.53;;;;;22.10;99305.00;;;;2068150;28;20572;-55
2023/11/01 02:23:32;;;;;;;5.20;3.17;;;;;22.20;99294.00;;;;2054406;28;20231;-56
2023/11/01 02:24:32;;;;;;;4.30;2.88;;;;;22.20;99297.00;;;;2071125;28;20280;-55
2023/11/01 02:25:33;;;;;;;3.87;2.60;;;;;22.20;99295.00;;;;2061485;28;20223;-57
2023/11/01 02:26:33;;;;;;;6.30;2.67;;;;;22.20;99294.00;;;;2048174;28;20210;-57
2023/11/01 02:27:34;;;;;;;5.30;3.30;;;;;22.20;99300.00;;;;2068313;28;20245;-57
2023/11/01 02:28:34;;;;;;;4.90;2.97;;;;;22.10;99291.00;;;;2056839;28;20211;-58
2023/11/01 02:29:35;;;;;;;3.00;2.50;;;;;22.10;99340.00;;;;2061135;28;20233;-58
2023/11/01 02:30:35;;;;;;;6.63;2.70;;;;;22.10;99291.00;;;;2061222;28;20686;-58
2023/11/01 02:31:36;;;;;;;5.30;2.80;;;;;22.10;99296.00;;;;2046856;28;20242;-57
2023/11/01 02:32:36;;;;;;;4.53;2.90;;;;;22.10;99292.00;;;;2056866;28;20461;-58
2023/11/01 02:33:36;;;;;;;4.60;2.80;;;;;22.10;99294.00;;;;2058917;28;20229;-58
2023/11/01 02:34:37;;;;;;;5.97;2.80;;;;;22.10;99288.00;;;;2053455;28;20223;-57
2023/11/01 02:35:38;;;;;;;4.73;2.70;;;;;22.10;99286.00;;;;2054722;28;20218;-57
2023/11/01 02:36:38;;;;;;;4.20;2.47;;;;;22.10;99289.00;;;;2064502;28;20457;-57
2023/11/01 02:37:38;;;;;;;6.47;2.80;;;;;22.10;99285.00;;;;2068236;28;20210;-58
2023/11/01 02:38:39;;;;;;;3.20;2.60;;;;;22.10;99283.00;;;;2055883;28;20225;-58
2023/11/01 02:39:39;;;;;;;4.00;2.40;;;;;22.10;99281.00;;;;2060998;28;20218;-58
2023/11/01 02:40:39;;;;;;;2.83;2.20;;;;;22.10;99279.00;;;;2054423;28;20368;-54
2023/11/01 02:41:40;;;;;;;4.87;2.87;;;;;22.10;99275.00;;;;2051624;28;20215;-57
2023/11/01 02:42:47;;;;;;;4.50;2.80;;;;;22.10;99280.00;;;;2057346;28;20214;-58
2023/11/01 02:43:47;;;;;;;5.05;2.83;;;;;22.10;99274.00;;;;2061165;28;20848;-56
2023/11/01 02:44:48;;;;;;;4.00;2.40;;;;;22.10;99279.00;;;;2067889;28;20252;-56
2023/11/01 02:45:48;;;;;;;4.50;2.77;;;;;22.10;99271.00;;;;2049787;28;20227;-56
2023/11/01 02:46:49;;;;;;;4.27;3.00;;;;;22.10;99271.00;;;;2060842;28;20227;-57
2023/11/01 02:47:49;;;;;;;3.43;2.30;;;;;22.10;99274.00;;;;2059253;28;20211;-56
2023/11/01 02:48:49;;;;;;;3.80;2.27;;;;;22.10;99270.00;;;;2060052;28;20211;-58
2023/11/01 02:49:50;;;;;;;3.20;2.47;;;;;22.10;99267.00;;;;2060387;28;20226;-57
2023/11/01 02:50:50;;;;;;;2.60;1.90;;;;;22.10;99261.00;;;;2051353;28;20215;-57
2023/11/01 02:51:51;;;;;;;8.03;2.40;;;;;21.70;99265.00;;;;2060171;28;20358;-58
2023/11/01 02:52:52;;;;;;;4.45;2.88;;;;;22.10;99260.00;;;;2065283;28;21009;-55
2023/11/01 02:53:52;;;;;;;3.27;2.40;;;;;22.10;99264.00;;;;2060909;28;20218;-54
2023/11/01 02:54:52;;;;;;;4.37;2.70;;;;;22.10;99261.00;;;;2063611;28;20217;-57
2023/11/01 02:55:53;;;;;;;2.83;1.97;;;;;22.10;99262.00;;;;2050336;28;20219;-54
2023/11/01 02:56:56;;;;;;;3.40;1.90;;;;;22.10;99260.00;;;;2059932;28;20219;-56
2023/11/01 02:57:57;;;;;;;4.10;2.45;;;;;22.10;99246.00;;;;2060782;28;20215;-57
2023/11/01 02:58:57;;;;;;;4.00;2.47;;;;;22.00;99253.00;;;;2060873;28;20716;-56
2023/11/01 03:00:01;;;;;;;3.47;2.50;;;;;22.10;99249.00;;;;2064221;28;20683;-57
2023/11/01 03:01:01;;;;;;;7.18;2.35;;;;;22.00;99233.00;;;;2045208;28;20223;-56
2023/11/01 03:02:01;;;;;;;2.90;2.30;;;;;22.00;99242.00;;;;2061358;28;20214;-57
2023/11/01 03:03:02;;;;;;;4.60;2.37;;;;;22.00;99248.00;;;;2059410;28;20270;-55
2023/11/01 03:04:03;;;;;;;5.50;2.50;;;;;22.00;99237.00;;;;2060287;28;20222;-57
2023/11/01 03:05:04;;;;;;;3.20;2.10;;;;;22.10;99234.00;;;;2068473;28;20211;-57
2023/11/01 03:06:05;;;;;;;4.13;2.42;;;;;22.00;99240.00;;;;2057218;28;20710;-56
2023/11/01 03:07:05;;;;;;;3.40;2.20;;;;;22.00;99230.00;;;;2068015;28;20258;-57
2023/11/01 03:08:06;;;;;;;3.43;2.30;;;;;22.00;99234.00;;;;2063477;28;20222;-58
2023/11/01 03:09:06;;;;;;;2.97;1.80;;;;;22.00;99232.00;;;;2059632;28;20231;-57
2023/11/01 03:10:08;;;;;;;3.60;2.00;;;;;22.10;99232.00;;;;2067762;28;20215;-58
2023/11/01 03:11:08;;;;;;;3.25;2.42;;;;;22.00;99236.00;;;;2051971;28;20926;-58
2023/11/01 03:12:09;;;;;;;2.43;2.00;;;;;22.00;99235.00;;;;2061909;28;20218;-58
2023/11/01 03:13:09;;;;;;;2.70;1.70;;;;;22.00;99229.00;;;;2066030;28;20309;-55
2023/11/01 03:14:10;;;;;;;4.13;2.13;;;;;22.00;99231.00;;;;2069772;28;20544;-58
2023/11/01 03:15:11;;;;;;;2.50;1.93;;;;;22.00;99236.00;;;;2059021;28;20238;-58
2023/11/01 03:16:11;;;;;;;3.40;2.00;;;;;22.00;99240.00;;;;2046248;28;20404;-60
2023/11/01 03:17:12;;;;;;;3.50;2.20;;;;;22.00;99238.00;;;;2062273;28;20322;-55
2023/11/01 03:18:12;;;;;;;4.10;2.30;;;;;22.00;99232.00;;;;2069490;28;20222;-58
2023/11/01 03:19:12;;;;;;;4.70;1.87;;;;;22.00;99225.00;;;;2068540;28;20481;-58
2023/11/01 03:20:13;;;;;;;3.17;1.87;;;;;22.00;99231.00;;;;2062205;28;20230;-58
2023/11/01 03:21:13;;;;;;;3.27;2.07;;;;;22.00;99223.00;;;;2053661;28;20248;-57
2023/11/01 03:22:13;;;;;;;2.33;2.07;;;;;22.00;99226.00;;;;2058507;28;20239;-55
2023/11/01 03:23:14;;;;;;;3.90;2.33;;;;;22.00;99224.00;;;;2070042;28;20225;-56
2023/11/01 03:24:14;;;;;;;2.43;1.70;;;;;22.00;99222.00;;;;2066161;28;20219;-58
2023/11/01 03:25:15;;;;;;;4.13;1.90;;;;;22.00;99212.00;;;;2062240;28;20303;-57
2023/11/01 03:26:15;;;;;;;5.60;3.63;;;;;22.00;99222.00;;;;2048642;28;20219;-56
2023/11/01 03:27:15;;;;;;;2.90;1.40;;;;;22.00;99218.00;;;;2062313;28;20214;-57
2023/11/01 03:28:16;;;;;;;3.10;1.80;;;;;22.00;99222.00;;;;2061476;28;20226;-57
2023/11/01 03:29:16;;;;;;;2.37;1.80;;;;;22.00;99221.00;;;;2061877;28;20215;-55
2023/11/01 03:30:17;;;;;;;4.50;1.63;;;;;22.00;99222.00;;;;2061701;28;20215;-56
2023/11/01 03:31:18;;;;;;;5.60;1.77;;;;;22.00;99219.00;;;;2051741;28;20231;-58
2023/11/01 03:32:19;;;;;;;4.43;1.90;;;;;22.00;99226.00;;;;2059463;28;20215;-55
2023/11/01 03:33:19;;;;;;;4.30;1.80;;;;;22.00;99219.00;;;;2056944;28;20208;-58
2023/11/01 03:34:20;;;;;;;4.13;1.90;;;;;22.00;99212.00;;;;2054142;28;20543;-58
2023/11/01 03:35:20;;;;;;;3.60;2.00;;;;;22.00;99212.00;;;;2067969;28;20210;-58
2023/11/01 03:36:20;;;;;;;2.57;1.50;;;;;22.00;99209.00;;;;2061911;28;20214;-55
2023/11/01 03:37:21;;;;;;;3.33;1.83;;;;;22.00;99212.00;;;;2068873;28;20206;-57
2023/11/01 03:38:22;;;;;;;4.77;1.87;;;;;22.00;99207.00;;;;2057786;28;20220;-57
2023/11/01 03:39:22;;;;;;;2.58;1.75;;;;;22.00;99212.00;;;;2058951;28;20574;-57
2023/11/01 03:40:22;;;;;;;2.33;1.40;;;;;22.00;99201.00;;;;2065798;28;20206;-54
2023/11/01 03:41:23;;;;;;;3.10;1.90;;;;;22.00;99204.00;;;;2060626;28;20218;-56
2023/11/01 03:42:23;;;;;;;3.20;1.80;;;;;22.00;99203.00;;;;2069731;28;20334;-57
2023/11/01 03:43:23;;;;;;;2.40;1.60;;;;;21.90;99202.00;;;;2064926;28;20303;-58
2023/11/01 03:44:24;;;;;;;2.40;1.30;;;;;21.90;99209.00;;;;2061360;28;20207;-56
2023/11/01 03:45:24;;;;;;;1.93;1.60;;;;;21.90;99207.00;;;;2062516;28;20214;-57
2023/11/01 03:46:25;;;;;;;2.83;1.80;;;;;21.90;99204.00;;;;2050949;28;20276;-58
2023/11/01 03:47:26;;;;;;;2.23;1.40;;;;;21.90;99206.00;;;;2056222;28;20208;-54
2023/11/01 03:48:26;;;;;;;2.95;1.85;;;;;21.90;99206.00;;;;2061454;28;20214;-57
2023/11/01 03:49:29;;;;;;;2.60;1.67;;;;;21.90;99209.00;;;;2060591;28;20650;-57
2023/11/01 03:50:30;;;;;;;2.10;1.33;;;;;22.00;99218.00;;;;2056761;28;20204;-56
2023/11/01 03:51:30;;;;;;;1.80;1.20;;;;;22.00;99204.00;;;;2050211;28;20595;-56
2023/11/01 03:52:31;;;;;;;2.60;1.60;;;;;21.90;99198.00;;;;2069071;28;20226;-55
2023/11/01 03:53:31;;;;;;;2.17;1.40;;;;;22.00;99205.00;;;;2063778;28;21211;-56
2023/11/01 03:54:34;;;;;;;2.57;1.37;;;;;22.00;99197.00;;;;2066090;28;20437;-55
2023/11/01 03:55:34;;;;;;;2.92;1.50;;;;;21.90;99193.00;;;;2068779;28;20241;-56
2023/11/01 03:56:35;;;;;;;3.07;1.60;;;;;21.90;99197.00;;;;2054825;28;20221;-58
2023/11/01 03:57:35;;;;;;;2.47;1.20;;;;;21.90;99186.00;;;;2063150;28;20731;-56
2023/11/01 03:58:35;;;;;;;1.80;1.50;;;;;22.00;99248.00;;;;2060726;28;20718;-57
2023/11/01 03:59:36;;;;;;;3.50;1.90;;;;;21.90;99193.00;;;;2057273;28;20578;-55
2023/11/01 04:00:36;;;;;;;2.60;1.50;;;;;22.00;99185.00;;;;2060351;28;20689;-56
2023/11/01 04:01:36;;;;;;;2.97;1.37;;;;;21.90;99184.00;;;;2058296;28;20218;-56
2023/11/01 04:02:37;;;;;;;5.50;1.73;;;;;21.90;99178.00;;;;2068860;28;20285;-57
2023/11/01 04:03:37;;;;;;;3.93;1.43;;;;;21.90;99187.00;;;;2053496;28;20219;-57
2023/11/01 04:04:37;;;;;;;1.80;1.20;;;;;21.90;99173.00;;;;2052385;28;20679;-57
2023/11/01 04:05:39;;;;;;;2.80;1.63;;;;;21.90;99180.00;;;;2054514;28;20718;-59
2023/11/01 04:06:39;;;;;;;3.47;1.40;;;;;21.90;99182.00;;;;2060126;28;20215;-54
2023/11/01 04:07:39;;;;;;;3.03;1.60;;;;;21.90;99176.00;;;;2069014;28;20210;-57
2023/11/01 04:08:40;;;;;;;2.50;1.50;;;;;21.90;99178.00;;;;2072191;28;20221;-57
2023/11/01 04:09:41;;;;;;;2.50;1.10;;;;;21.90;99177.00;;;;2062566;28;20227;-58
2023/11/01 04:10:41;;;;;;;2.20;1.13;;;;;21.90;99175.00;;;;2050460;28;20249;-55
2023/11/01 04:11:41;;;;;;;1.73;1.20;;;;;21.90;99166.00;;;;2052426;28;20609;-57
2023/11/01 04:12:41;;;;;;;2.10;1.10;;;;;22.00;99167.00;;;;2053809;28;20212;-55
2023/11/01 04:13:42;;;;;;;2.27;1.20;;;;;21.90;99175.00;;;;2052937;28;20211;-56
2023/11/01 04:14:42;;;;;;;2.17;1.40;;;;;21.90;99201.00;;;;2054549;28;20231;-57
2023/11/01 04:15:43;;;;;;;2.80;1.30;;;;;21.90;99156.00;;;;2044533;28;20672;-55
2023/11/01 04:16:43;;;;;;;2.83;1.20;;;;;21.90;99158.00;;;;2047270;28;20616;-57
2023/11/01 04:17:43;;;;;;;1.77;1.20;;;;;21.90;99165.00;;;;2045423;28;20665;-56
2023/11/01 04:18:44;;;;;;;2.87;1.53;;;;;21.90;99156.00;;;;2057340;28;20254;-57
2023/11/01 04:19:44;;;;;;;2.00;1.33;;;;;21.90;99162.00;;;;2059395;28;20207;-58
2023/11/01 04:20:44;;;;;;;1.63;1.20;;;;;21.90;99152.00;;;;2044806;28;20235;-57
2023/11/01 04:21:45;;;;;;;2.77;1.30;;;;;21.90;99162.00;;;;2058640;28;20219;-56
2023/11/01 04:22:45;;;;;;;2.67;1.20;;;;;21.90;99165.00;;;;2060715;28;20265;-57
2023/11/01 04:23:46;;;;;;;1.97;1.07;;;;;21.90;99165.00;;;;2063033;28;20703;-57
2023/11/01 04:24:46;;;;;;;2.80;1.43;;;;;21.90;99153.00;;;;2061277;28;20596;-57
2023/11/01 04:25:46;;;;;;;3.37;1.33;;;;;21.90;99158.00;;;;2056509;28;20222;-58
2023/11/01 04:26:46;;;;;;;3.73;1.63;;;;;21.90;99161.00;;;;2062254;28;20329;-58
2023/11/01 04:27:47;;;;;;;1.67;0.90;;;;;21.90;99154.00;;;;2061626;28;20234;-57
2023/11/01 04:28:47;;;;;;;2.40;1.30;;;;;21.90;99153.00;;;;2061740;28;20219;-58
2023/11/01 04:29:47;;;;;;;2.70;1.20;;;;;21.90;99150.00;;;;2059661;28;20219;-58
2023/11/01 04:30:48;;;;;;;2.50;1.60;;;;;21.90;99161.00;;;;2052083;28;20226;-58
2023/11/01 04:31:52;;;;;;;2.17;1.20;;;;;21.90;99146.00;;;;2061116;28;20310;-57
2023/11/01 04:32:53;;;;;;;2.60;1.38;;;;;21.90;99158.00;;;;2059195;28;20219;-58
2023/11/01 04:33:53;;;;;;;1.50;1.00;;;;;21.90;99149.00;;;;2061613;28;20223;-58
2023/11/01 04:34:55;;;;;;;3.37;1.50;;;;;21.90;99150.00;;;;2058332;28;20219;-58
2023/11/01 04:35:55;;;;;;;1.95;1.30;;;;;21.90;99150.00;;;;2043879;28;20216;-57
2023/11/01 04:36:56;;;;;;;2.17;1.03;;;;;21.90;99147.00;;;;2060918;28;20242;-58
2023/11/01 04:37:56;;;;;;;1.70;1.30;;;;;21.90;99134.00;;;;2060648;28;20215;-58
2023/11/01 04:38:57;;;;;;;1.40;1.17;;;;;21.90;99150.00;;;;2053683;28;20228;-57
2023/11/01 04:39:58;;;;;;;3.13;1.43;;;;;21.80;99153.00;;;;2060548;28;20497;-58
2023/11/01 04:40:58;;;;;;;1.97;1.20;;;;;21.80;99156.00;;;;2044953;28;20571;-57
2023/11/01 04:41:58;;;;;;;3.67;1.33;;;;;21.80;99152.00;;;;2067876;28;20293;-58
2023/11/01 04:42:59;;;;;;;2.73;1.63;;;;;21.80;99143.00;;;;2068998;28;20222;-58
2023/11/01 04:43:59;;;;;;;2.60;1.10;;;;;21.80;99148.00;;;;2061738;28;20302;-57
2023/11/01 04:44:59;;;;;;;3.70;1.13;;;;;21.80;99144.00;;;;2061040;28;20226;-58
2023/11/01 04:46:00;;;;;;;3.73;1.00;;;;;21.80;99152.00;;;;2049574;28;20234;-57
2023/11/01 04:47:00;;;;;;;2.40;1.13;;;;;21.80;99142.00;;;;2058699;28;20238;-57
2023/11/01 04:48:01;;;;;;;1.70;1.00;;;;;21.80;99141.00;;;;2053669;28;20231;-57
2023/11/01 04:49:01;;;;;;;2.40;1.33;;;;;21.80;99078.00;;;;2054690;28;20216;-58
2023/11/01 04:50:02;;;;;;;1.53;0.97;;;;;21.80;99146.00;;;;2068607;28;20844;-58
2023/11/01 04:51:03;;;;;;;2.10;1.17;;;;;21.80;99135.00;;;;2058775;28;20225;-58
2023/11/01 04:52:04;;;;;;;2.47;1.30;;;;;21.80;99147.00;;;;2066546;28;20234;-58
2023/11/01 04:53:05;;;;;;;2.85;1.02;;;;;21.90;99133.00;;;;2053572;28;21035;-58
2023/11/01 04:54:06;;;;;;;1.60;0.90;;;;;21.80;99131.00;;;;2057149;28;20229;-57
2023/11/01 04:55:08;;;;;;;4.18;0.90;;;;;21.80;99135.00;;;;2061491;28;20256;-58
2023/11/01 04:56:08;;;;;;;2.58;1.00;;;;;21.80;99131.00;;;;2057658;28;20222;-58
2023/11/01 04:57:08;;;;;;;1.93;0.90;;;;;21.80;99129.00;;;;2068666;28;20640;-57
2023/11/01 04:58:09;;;;;;;2.60;0.90;;;;;21.80;99130.00;;;;2061753;28;20215;-58
2023/11/01 04:59:09;;;;;;;1.50;0.70;;;;;21.80;99131.00;;;;2062609;28;20213;-58
2023/11/01 05:00:11;;;;;;;2.20;1.10;;;;;21.80;99142.00;;;;2061354;28;20265;-58
2023/11/01 05:01:13;;;;;;;1.98;0.75;;;;;21.80;99133.00;;;;2046653;28;20223;-58
2023/11/01 05:02:13;;;;;;;1.20;0.80;;;;;21.80;99138.00;;;;2053220;28;20216;-58
2023/11/01 05:03:13;;;;;;;1.17;0.83;;;;;21.80;99137.00;;;;2053623;28;20246;-59